createdAt,value
2023-03-29T00:00:36.288Z,97307.22
2023-03-29T00:03:04.172Z,97326.22
2023-03-29T00:05:33.922Z,97326.69
2023-03-29T00:08:04.081Z,97309.34
2023-03-29T00:10:33.626Z,97315.50
2023-03-29T00:13:00.954Z,97317.94
2023-03-29T00:15:27.558Z,97313.03
2023-03-29T00:17:54.086Z,97315.44
2023-03-29T00:20:20.688Z,97310.69
2023-03-29T00:22:47.210Z,97307.03
2023-03-29T00:25:14.057Z,97292.81
2023-03-29T00:27:41.082Z,97284.03
2023-03-29T00:30:10.028Z,97307.22
2023-03-29T00:32:37.063Z,97302.28
2023-03-29T00:35:05.984Z,97287.69
2023-03-29T00:37:32.906Z,97302.66
2023-03-29T00:39:59.685Z,97313.13
2023-03-29T00:42:26.775Z,97300.94
2023-03-29T00:45:05.278Z,97290.75
2023-03-29T00:47:43.077Z,97291.72
2023-03-29T00:50:29.627Z,97287.44
2023-03-29T00:53:12.433Z,97287.63
2023-03-29T00:55:44.266Z,97279.31
2023-03-29T00:58:13.878Z,97250.13
2023-03-29T01:01:04.323Z,97261.84
2023-03-29T01:03:41.516Z,97245.91
2023-03-29T01:06:10.585Z,97259.16
2023-03-29T01:08:45.468Z,97253.16
2023-03-29T01:11:22.194Z,97254.69
2023-03-29T01:14:08.794Z,97267.50
2023-03-29T01:16:38.463Z,97230.81
2023-03-29T01:19:09.158Z,97231.63
2023-03-29T01:21:43.625Z,97250.31
2023-03-29T01:24:32.206Z,97231.19
2023-03-29T01:27:22.839Z,97213.91
2023-03-29T01:29:57.178Z,97196.28
2023-03-29T01:32:34.806Z,97215.16
2023-03-29T01:35:13.072Z,97196.53
2023-03-29T01:37:46.067Z,97169.88
2023-03-29T01:40:12.669Z,97176.34
2023-03-29T01:43:03.396Z,97190.66
2023-03-29T01:45:51.731Z,97199.44
2023-03-29T01:48:30.069Z,97200.06
2023-03-29T01:51:23.996Z,97185.66
2023-03-29T01:54:14.513Z,97187.91
2023-03-29T01:56:43.795Z,97178.31
2023-03-29T01:59:17.626Z,97169.28
2023-03-29T02:01:49.733Z,97176.53
2023-03-29T02:04:29.027Z,97183.22
2023-03-29T02:06:59.422Z,97167.31
2023-03-29T02:09:28.702Z,97143.06
2023-03-29T02:11:59.183Z,97149.16
2023-03-29T02:14:26.174Z,97152.81
2023-03-29T02:16:52.669Z,97151.22
2023-03-29T02:19:20.516Z,97176.53
2023-03-29T02:22:01.466Z,97133.88
2023-03-29T02:24:32.272Z,97158.44
2023-03-29T02:27:00.125Z,97137.00
2023-03-29T02:29:27.297Z,97137.34
2023-03-29T02:32:04.674Z,97156.13
2023-03-29T02:34:38.868Z,97160.97
2023-03-29T02:37:15.626Z,97133.59
2023-03-29T02:39:42.783Z,97125.44
2023-03-29T02:42:10.911Z,97123.06
2023-03-29T02:44:41.942Z,97124.31
2023-03-29T02:47:17.272Z,97133.53
2023-03-29T02:49:44.192Z,97141.22
2023-03-29T02:52:15.999Z,97094.44
2023-03-29T02:54:45.913Z,97127.06
2023-03-29T02:57:12.444Z,97109.78
2023-03-29T02:59:40.816Z,97078.16
2023-03-29T03:02:07.374Z,97110.34
2023-03-29T03:04:35.479Z,97110.50
2023-03-29T03:07:04.713Z,97096.47
2023-03-29T03:09:31.776Z,97078.34
2023-03-29T03:11:58.512Z,97088.81
2023-03-29T03:14:25.258Z,97095.59
2023-03-29T03:16:52.785Z,97065.84
2023-03-29T03:19:19.883Z,97093.25
2023-03-29T03:21:46.968Z,97106.44
2023-03-29T03:24:14.384Z,97078.63
2023-03-29T03:26:40.892Z,97100.78
2023-03-29T03:29:07.624Z,97085.59
2023-03-29T03:31:53.911Z,97087.47
2023-03-29T03:34:39.294Z,97020.59
2023-03-29T03:37:06.041Z,97073.31
2023-03-29T03:39:34.297Z,97053.03
2023-03-29T03:42:02.549Z,97083.09
2023-03-29T03:44:29.138Z,97093.00
2023-03-29T03:47:14.594Z,97055.94
2023-03-29T03:49:42.159Z,97071.66
2023-03-29T03:52:08.874Z,97077.91
2023-03-29T03:54:35.358Z,97079.13
2023-03-29T03:57:24.632Z,97045.81
2023-03-29T03:59:52.880Z,97009.88
2023-03-29T04:02:39.207Z,97037.69
2023-03-29T04:05:06.339Z,97052.59
2023-03-29T04:07:36.420Z,97001.03
2023-03-29T04:10:31.919Z,97040.78
2023-03-29T04:13:12.015Z,97042.41
2023-03-29T04:16:00.881Z,97036.41
2023-03-29T04:18:28.463Z,97033.66
2023-03-29T04:20:57.485Z,97012.66
2023-03-29T04:23:25.712Z,97042.69
2023-03-29T04:25:54.233Z,97056.00
2023-03-29T04:28:52.850Z,97033.84
2023-03-29T04:31:32.274Z,97056.72
2023-03-29T04:34:13.122Z,96984.53
2023-03-29T04:36:39.717Z,97038.66
2023-03-29T04:39:12.686Z,97036.63
2023-03-29T04:41:40.505Z,97028.84
2023-03-29T04:44:18.852Z,97038.03
2023-03-29T04:46:45.555Z,97027.47
2023-03-29T04:49:30.404Z,97039.97
2023-03-29T04:51:58.156Z,97005.56
2023-03-29T04:54:27.829Z,97030.66
2023-03-29T04:57:01.457Z,97012.47
2023-03-29T04:59:36.917Z,97039.78
2023-03-29T05:02:12.818Z,97024.41
2023-03-29T05:04:42.373Z,96999.91
2023-03-29T05:07:15.531Z,97031.28
2023-03-29T05:09:42.656Z,96997.16
2023-03-29T05:12:09.993Z,97029.41
2023-03-29T05:14:51.199Z,97020.66
2023-03-29T05:17:18.084Z,97026.16
2023-03-29T05:19:45.907Z,97016.22
2023-03-29T05:22:14.164Z,96999.66
2023-03-29T05:24:42.086Z,97008.13
2023-03-29T05:27:17.194Z,97022.03
2023-03-29T05:29:50.034Z,97017.72
2023-03-29T05:32:38.057Z,97005.66
2023-03-29T05:35:06.690Z,96995.66
2023-03-29T05:37:34.365Z,97020.81
2023-03-29T05:40:09.953Z,97018.91
2023-03-29T05:42:53.207Z,97003.75
2023-03-29T05:45:20.264Z,97009.75
2023-03-29T05:47:46.803Z,97004.16
2023-03-29T05:50:13.634Z,96992.44
2023-03-29T05:52:41.135Z,97009.22
2023-03-29T05:55:08.044Z,96992.69
2023-03-29T05:57:38.088Z,96993.06
2023-03-29T06:00:25.615Z,97007.47
2023-03-29T06:03:10.093Z,96974.22
2023-03-29T06:05:49.978Z,97024.03
2023-03-29T06:08:17.104Z,97018.03
2023-03-29T06:11:03.091Z,97015.00
2023-03-29T06:13:53.852Z,97002.50
2023-03-29T06:16:20.319Z,97026.38
2023-03-29T06:18:47.895Z,97022.28
2023-03-29T06:21:14.827Z,97030.28
2023-03-29T06:23:41.847Z,96978.09
2023-03-29T06:26:10.556Z,97019.91
2023-03-29T06:28:37.687Z,97010.03
2023-03-29T06:31:04.501Z,97034.13
2023-03-29T06:33:37.756Z,97025.13
2023-03-29T06:36:16.155Z,97007.34
2023-03-29T06:38:45.584Z,97027.84
2023-03-29T06:41:35.307Z,97016.63
2023-03-29T06:44:07.439Z,97030.22
2023-03-29T06:46:38.734Z,97038.69
2023-03-29T06:49:07.344Z,97033.53
2023-03-29T06:51:42.719Z,97042.91
2023-03-29T06:54:09.276Z,97032.44
2023-03-29T06:56:39.594Z,97038.66
2023-03-29T06:59:11.795Z,97006.06
2023-03-29T07:01:47.262Z,97022.09
2023-03-29T07:04:22.276Z,97030.56
2023-03-29T07:07:20.585Z,97022.44
2023-03-29T07:09:55.235Z,97050.09
2023-03-29T07:12:40.848Z,97037.44
2023-03-29T07:15:09.534Z,97035.38
2023-03-29T07:18:04.696Z,97054.22
2023-03-29T07:20:33.731Z,97040.56
2023-03-29T07:23:06.830Z,97057.63
2023-03-29T07:25:34.117Z,97058.44
2023-03-29T07:28:01.482Z,97037.28
2023-03-29T07:30:32.019Z,97057.16
2023-03-29T07:33:12.313Z,97056.34
2023-03-29T07:35:47.904Z,97053.00
2023-03-29T07:38:15.595Z,97026.59
2023-03-29T07:40:47.344Z,97048.59
2023-03-29T07:43:32.355Z,97037.38
2023-03-29T07:46:04.817Z,97054.84
2023-03-29T07:48:33.754Z,97052.75
2023-03-29T07:51:05.186Z,97056.31
2023-03-29T07:53:43.007Z,97042.63
2023-03-29T07:56:27.640Z,97035.81
2023-03-29T07:59:17.096Z,97047.00
2023-03-29T08:01:47.653Z,97053.00
2023-03-29T08:04:25.609Z,97038.97
2023-03-29T08:07:10.992Z,97029.34
2023-03-29T08:09:57.538Z,97032.31
2023-03-29T08:12:38.142Z,97038.22
2023-03-29T08:15:05.792Z,97051.00
2023-03-29T08:17:36.184Z,97024.88
2023-03-29T08:20:05.952Z,97048.44
2023-03-29T08:22:33.831Z,97048.16
2023-03-29T08:25:27.904Z,97043.16
2023-03-29T08:27:54.637Z,97036.66
2023-03-29T08:30:35.197Z,97036.88
2023-03-29T08:33:02.846Z,97031.56
2023-03-29T08:35:29.519Z,97033.63
2023-03-29T08:38:08.714Z,96963.72
2023-03-29T08:40:35.266Z,97035.81
2023-03-29T08:43:39.189Z,97025.69
2023-03-29T08:46:47.136Z,97027.44
2023-03-29T08:49:22.277Z,96970.34
2023-03-29T08:51:54.754Z,96997.75
2023-03-29T08:54:25.419Z,97016.44
2023-03-29T08:57:32.579Z,97027.72
2023-03-29T09:00:20.452Z,97028.16
2023-03-29T09:02:49.347Z,97025.88
2023-03-29T09:05:26.778Z,97027.47
2023-03-29T09:08:16.353Z,97029.47
2023-03-29T09:11:08.392Z,97024.81
2023-03-29T09:13:42.122Z,97019.00
2023-03-29T09:16:23.828Z,97007.53
2023-03-29T09:19:39.842Z,97038.56
2023-03-29T09:22:45.897Z,97024.16
2023-03-29T09:25:21.346Z,97023.03
2023-03-29T09:27:56.977Z,97023.94
2023-03-29T09:31:01.909Z,97025.09
2023-03-29T09:33:43.758Z,97035.25
2023-03-29T09:36:34.644Z,97010.72
2023-03-29T09:39:02.376Z,97011.63
2023-03-29T09:41:41.543Z,97001.81
2023-03-29T09:44:23.913Z,97029.09
2023-03-29T09:47:16.810Z,97022.25
2023-03-29T09:49:48.632Z,96998.47
2023-03-29T09:52:18.175Z,97015.13
2023-03-29T09:54:54.055Z,97009.09
2023-03-29T09:57:29.268Z,97001.44
2023-03-29T09:59:57.598Z,97007.81
2023-03-29T10:02:24.203Z,97018.59
2023-03-29T10:05:03.811Z,96957.06
2023-03-29T10:07:41.238Z,97015.41
2023-03-29T10:10:10.533Z,96998.44
2023-03-29T10:12:37.414Z,97004.03
2023-03-29T10:15:05.615Z,96979.03
2023-03-29T10:17:40.815Z,97001.91
2023-03-29T10:20:13.815Z,97002.34
2023-03-29T10:22:48.244Z,96988.50
2023-03-29T10:25:18.352Z,96989.72
2023-03-29T10:27:47.521Z,96978.78
2023-03-29T10:30:23.856Z,96970.91
2023-03-29T10:33:00.337Z,96978.50
2023-03-29T10:35:38.117Z,96971.66
2023-03-29T10:38:07.853Z,96964.88
2023-03-29T10:40:35.660Z,96972.41
2023-03-29T10:43:12.468Z,96981.34
2023-03-29T10:45:40.183Z,96979.47
2023-03-29T10:48:10.074Z,96970.50
2023-03-29T10:50:38.102Z,96975.28
2023-03-29T10:53:24.626Z,96960.00
2023-03-29T10:56:14.559Z,96975.84
2023-03-29T10:58:59.526Z,96971.22
2023-03-29T11:01:34.105Z,96956.16
2023-03-29T11:04:15.973Z,96958.97
2023-03-29T11:06:52.556Z,96966.00
2023-03-29T11:09:37.642Z,96972.34
2023-03-29T11:12:16.347Z,96967.38
2023-03-29T11:15:30.417Z,96961.13
2023-03-29T11:18:41.560Z,96957.00
2023-03-29T11:21:23.424Z,96973.72
2023-03-29T11:24:25.619Z,96973.50
2023-03-29T11:27:17.075Z,96977.28
2023-03-29T11:30:03.651Z,96963.38
2023-03-29T11:32:49.154Z,96975.34
2023-03-29T11:35:24.399Z,96963.78
2023-03-29T11:38:06.086Z,96958.06
2023-03-29T11:40:53.502Z,96933.91
2023-03-29T11:43:37.771Z,96950.97
2023-03-29T11:46:04.503Z,96948.88
2023-03-29T11:48:41.186Z,96956.34
2023-03-29T11:51:28.541Z,96942.78
2023-03-29T11:54:16.529Z,96935.06
2023-03-29T11:56:59.006Z,96939.31
2023-03-29T11:59:52.130Z,96935.44
2023-03-29T12:02:32.540Z,96931.50
2023-03-29T12:05:05.022Z,96922.69
2023-03-29T12:07:41.664Z,96932.63
2023-03-29T12:10:13.944Z,96936.22
2023-03-29T12:12:55.237Z,96923.56
2023-03-29T12:15:26.148Z,96928.75
2023-03-29T12:18:37.892Z,96927.88
2023-03-29T12:21:12.144Z,96917.16
2023-03-29T12:23:41.660Z,96915.34
2023-03-29T12:26:20.407Z,96923.00
2023-03-29T12:29:08.299Z,96903.78
2023-03-29T12:32:13.135Z,96923.75
2023-03-29T12:35:22.195Z,96920.47
2023-03-29T12:38:22.872Z,96916.88
2023-03-29T12:41:19.829Z,96916.56
2023-03-29T12:44:05.137Z,96915.66
2023-03-29T12:46:54.720Z,96920.94
2023-03-29T12:49:29.501Z,96906.59
2023-03-29T12:51:59.012Z,96867.78
2023-03-29T12:54:30.672Z,96898.88
2023-03-29T12:57:03.349Z,96884.50
2023-03-29T12:59:45.178Z,96899.28
2023-03-29T13:02:14.518Z,96902.53
2023-03-29T13:04:56.704Z,96904.63
2023-03-29T13:07:23.303Z,96905.81
2023-03-29T13:09:51.172Z,96898.50
2023-03-29T13:12:35.995Z,96892.91
2023-03-29T13:15:06.647Z,96892.41
2023-03-29T13:18:16.098Z,96896.03
2023-03-29T13:20:51.375Z,96889.13
2023-03-29T13:23:51.468Z,96867.97
2023-03-29T13:26:40.826Z,96872.25
2023-03-29T13:29:29.748Z,96866.97
2023-03-29T13:32:04.415Z,96866.16
2023-03-29T13:34:53.757Z,96873.81
2023-03-29T13:37:57.637Z,96867.00
2023-03-29T13:40:53.777Z,96856.94
2023-03-29T13:43:32.272Z,96864.38
2023-03-29T13:45:58.721Z,96860.63
2023-03-29T13:48:46.887Z,96842.09
2023-03-29T13:51:13.268Z,96870.94
2023-03-29T13:54:01.410Z,96865.09
2023-03-29T13:56:58.961Z,96858.94
2023-03-29T13:59:36.180Z,96847.47
2023-03-29T14:02:04.569Z,96866.25
2023-03-29T14:04:37.813Z,96860.19
2023-03-29T14:07:06.826Z,96863.66
2023-03-29T14:09:38.950Z,96835.69
2023-03-29T14:12:07.951Z,96848.81
2023-03-29T14:14:35.178Z,96852.25
2023-03-29T14:17:02.683Z,96858.72
2023-03-29T14:19:32.950Z,96855.00
2023-03-29T14:22:01.920Z,96846.25
2023-03-29T14:24:38.654Z,96841.03
2023-03-29T14:27:07.540Z,96851.94
2023-03-29T14:29:35.451Z,96850.34
2023-03-29T14:32:10.655Z,96824.69
2023-03-29T14:34:37.641Z,96833.91
2023-03-29T14:37:04.612Z,96809.59
2023-03-29T14:39:34.204Z,96820.94
2023-03-29T14:42:01.661Z,96820.97
2023-03-29T14:44:34.528Z,96819.38
2023-03-29T14:47:02.898Z,96797.91
2023-03-29T14:49:29.864Z,96811.38
2023-03-29T14:51:57.171Z,96826.34
2023-03-29T14:54:29.660Z,96827.22
2023-03-29T14:56:56.445Z,96804.91
2023-03-29T14:59:38.030Z,96814.75
2023-03-29T15:02:21.861Z,96823.03
2023-03-29T15:04:58.741Z,96820.63
2023-03-29T15:07:29.484Z,96825.13
2023-03-29T15:09:58.533Z,96823.81
2023-03-29T15:12:28.758Z,96810.31
2023-03-29T15:14:55.365Z,96766.66
2023-03-29T15:17:42.640Z,96811.66
2023-03-29T15:20:24.005Z,96811.88
2023-03-29T15:23:01.434Z,96803.19
2023-03-29T15:25:34.319Z,96774.88
2023-03-29T15:28:01.860Z,96800.75
2023-03-29T15:30:34.457Z,96800.16
2023-03-29T15:33:21.293Z,96796.97
2023-03-29T15:35:51.829Z,96790.66
2023-03-29T15:38:23.310Z,96777.13
2023-03-29T15:40:51.839Z,96779.50
2023-03-29T15:43:21.229Z,96757.50
2023-03-29T15:45:47.943Z,96760.66
2023-03-29T15:48:20.421Z,96779.53
2023-03-29T15:50:46.927Z,96769.19
2023-03-29T15:53:15.753Z,96772.66
2023-03-29T15:55:45.985Z,96755.22
2023-03-29T15:58:15.130Z,96761.84
2023-03-29T16:00:46.522Z,96782.44
2023-03-29T16:03:15.959Z,96778.22
2023-03-29T16:05:43.345Z,96738.56
2023-03-29T16:08:11.459Z,96773.72
2023-03-29T16:10:38.463Z,96753.31
2023-03-29T16:13:05.044Z,96746.72
2023-03-29T16:15:32.132Z,96771.00
2023-03-29T16:17:58.659Z,96767.81
2023-03-29T16:20:25.464Z,96766.09
2023-03-29T16:22:54.120Z,96742.13
2023-03-29T16:25:22.811Z,96758.19
2023-03-29T16:27:50.780Z,96732.38
2023-03-29T16:30:17.302Z,96743.78
2023-03-29T16:32:43.855Z,96739.78
2023-03-29T16:35:19.120Z,96748.25
2023-03-29T16:37:45.608Z,96733.91
2023-03-29T16:40:12.526Z,96752.09
2023-03-29T16:42:39.763Z,96753.16
2023-03-29T16:45:07.510Z,96736.38
2023-03-29T16:47:34.043Z,96704.09
2023-03-29T16:50:00.783Z,96750.91
2023-03-29T16:52:27.615Z,96745.31
2023-03-29T16:54:54.007Z,96761.50
2023-03-29T16:57:20.445Z,96757.00
2023-03-29T16:59:47.724Z,96751.16
2023-03-29T17:02:14.178Z,96751.53
2023-03-29T17:04:40.672Z,96730.25
2023-03-29T17:07:07.142Z,96766.75
2023-03-29T17:09:33.595Z,96758.59
2023-03-29T17:12:00.155Z,96706.66
2023-03-29T17:14:26.782Z,96754.19
2023-03-29T17:16:53.328Z,96744.06
2023-03-29T17:19:19.845Z,96741.91
2023-03-29T17:21:46.289Z,96751.22
2023-03-29T17:24:12.882Z,96754.78
2023-03-29T17:26:39.827Z,96756.75
2023-03-29T17:29:06.332Z,96733.16
2023-03-29T17:31:34.804Z,96752.88
2023-03-29T17:34:01.559Z,96718.75
2023-03-29T17:36:28.875Z,96751.00
2023-03-29T17:38:55.563Z,96752.16
2023-03-29T17:41:22.887Z,96774.41
2023-03-29T17:43:50.889Z,96761.88
2023-03-29T17:46:18.049Z,96747.34
2023-03-29T17:48:46.218Z,96745.03
2023-03-29T17:51:12.649Z,96759.81
2023-03-29T17:53:39.134Z,96765.28
2023-03-29T17:56:06.995Z,96768.78
2023-03-29T17:58:33.900Z,96774.56
2023-03-29T18:01:07.187Z,96762.13
2023-03-29T18:03:33.717Z,96761.44
2023-03-29T18:06:00.338Z,96780.91
2023-03-29T18:08:28.289Z,96771.19
2023-03-29T18:10:54.740Z,96760.19
2023-03-29T18:13:25.504Z,96783.50
2023-03-29T18:15:56.633Z,96796.13
2023-03-29T18:18:23.170Z,96773.56
2023-03-29T18:20:49.681Z,96786.03
2023-03-29T18:23:16.237Z,96757.69
2023-03-29T18:25:42.601Z,96795.00
2023-03-29T18:28:09.192Z,96759.41
2023-03-29T18:30:35.762Z,96783.41
2023-03-29T18:33:02.239Z,96803.00
2023-03-29T18:35:28.788Z,96794.91
2023-03-29T18:37:55.204Z,96802.50
2023-03-29T18:40:24.637Z,96766.81
2023-03-29T18:42:51.939Z,96785.22
2023-03-29T18:45:18.999Z,96796.53
2023-03-29T18:47:45.532Z,96804.06
2023-03-29T18:50:13.212Z,96801.91
2023-03-29T18:52:40.060Z,96788.38
2023-03-29T18:55:07.248Z,96793.97
2023-03-29T18:57:33.737Z,96769.72
2023-03-29T19:00:00.394Z,96801.41
2023-03-29T19:02:26.937Z,96777.44
2023-03-29T19:04:53.355Z,96792.56
2023-03-29T19:07:20.997Z,96774.19
2023-03-29T19:09:47.412Z,96788.28
2023-03-29T19:12:13.861Z,96768.28
2023-03-29T19:14:40.412Z,96783.41
2023-03-29T19:17:06.778Z,96782.41
2023-03-29T19:19:33.273Z,96758.56
2023-03-29T19:22:00.727Z,96748.13
2023-03-29T19:24:27.752Z,96762.88
2023-03-29T19:26:54.473Z,96756.41
2023-03-29T19:29:20.982Z,96758.97
2023-03-29T19:31:47.594Z,96776.34
2023-03-29T19:34:14.212Z,96758.88
2023-03-29T19:36:40.610Z,96775.19
2023-03-29T19:39:07.195Z,96741.53
2023-03-29T19:41:33.718Z,96760.28
2023-03-29T19:44:00.376Z,96766.47
2023-03-29T19:46:28.790Z,96743.06
2023-03-29T19:48:56.218Z,96720.84
2023-03-29T19:51:23.578Z,96774.81
2023-03-29T19:53:50.244Z,96745.28
2023-03-29T19:56:17.249Z,96748.22
2023-03-29T19:58:43.735Z,96764.78
2023-03-29T20:01:10.164Z,96778.78
2023-03-29T20:03:36.774Z,96782.59
2023-03-29T20:06:03.712Z,96796.78
2023-03-29T20:08:30.519Z,96756.78
2023-03-29T20:11:03.294Z,96750.28
2023-03-29T20:13:38.358Z,96754.41
2023-03-29T20:16:15.007Z,96740.03
2023-03-29T20:18:44.550Z,96750.00
2023-03-29T20:21:18.724Z,96754.59
2023-03-29T20:23:45.890Z,96747.34
2023-03-29T20:26:12.407Z,96734.72
2023-03-29T20:28:38.835Z,96758.31
2023-03-29T20:31:08.006Z,96748.28
2023-03-29T20:33:34.473Z,96753.81
2023-03-29T20:36:01.053Z,96758.00
2023-03-29T20:38:27.833Z,96768.84
2023-03-29T20:40:55.234Z,96744.00
2023-03-29T20:43:21.824Z,96763.94
2023-03-29T20:45:53.801Z,96762.78
2023-03-29T20:48:23.239Z,96755.88
2023-03-29T20:50:50.590Z,96766.13
2023-03-29T20:53:18.393Z,96733.88
2023-03-29T20:55:45.006Z,96753.69
2023-03-29T20:58:11.531Z,96761.53
2023-03-29T21:00:38.283Z,96737.66
2023-03-29T21:03:05.035Z,96741.06
2023-03-29T21:05:33.380Z,96739.00
2023-03-29T21:07:59.987Z,96709.28
2023-03-29T21:10:27.441Z,96697.78
2023-03-29T21:12:54.411Z,96681.50
2023-03-29T21:15:20.948Z,96695.63
2023-03-29T21:17:47.791Z,96719.78
2023-03-29T21:20:15.185Z,96724.22
2023-03-29T21:22:45.266Z,96724.81
2023-03-29T21:25:15.503Z,96712.81
2023-03-29T21:27:42.063Z,96709.28
2023-03-29T21:30:08.863Z,96711.69
2023-03-29T21:32:35.707Z,96687.53
2023-03-29T21:35:02.232Z,96667.06
2023-03-29T21:37:28.658Z,96707.38
2023-03-29T21:39:55.232Z,96686.22
2023-03-29T21:42:21.598Z,96708.84
2023-03-29T21:44:48.059Z,96704.88
2023-03-29T21:47:14.430Z,96698.50
2023-03-29T21:49:41.180Z,96699.88
2023-03-29T21:52:07.678Z,96669.34
2023-03-29T21:54:34.061Z,96685.84
2023-03-29T21:57:00.678Z,96630.78
2023-03-29T21:59:27.899Z,96653.28
2023-03-29T22:17:20.661Z,96683.53
2023-03-29T22:19:47.544Z,96675.34
2023-03-29T22:22:14.665Z,96680.28
2023-03-29T22:24:41.948Z,96669.00
2023-03-29T22:27:08.578Z,96648.63
2023-03-29T22:29:35.116Z,96666.25
2023-03-29T22:32:01.829Z,96661.81
2023-03-29T22:34:28.377Z,96652.72
2023-03-29T22:36:54.808Z,96651.13
2023-03-29T22:39:21.398Z,96649.63
2023-03-29T22:41:47.952Z,96653.59
2023-03-29T22:44:14.442Z,96644.44
2023-03-29T22:46:41.308Z,96641.69
2023-03-29T22:49:07.829Z,96638.84
2023-03-29T22:51:34.253Z,96641.44
2023-03-29T22:54:01.021Z,96649.63
2023-03-29T22:56:27.555Z,96644.97
2023-03-29T22:58:54.152Z,96645.19
2023-03-29T23:01:20.682Z,96645.91
2023-03-29T23:03:47.550Z,96645.22
2023-03-29T23:06:14.100Z,96615.84
2023-03-29T23:08:40.588Z,96643.41
2023-03-29T23:11:07.564Z,96633.00
2023-03-29T23:13:35.152Z,96634.97
2023-03-29T23:16:03.900Z,96635.56
2023-03-29T23:18:34.826Z,96633.72
2023-03-29T23:21:02.440Z,96633.56
2023-03-29T23:23:29.156Z,96633.16
2023-03-29T23:25:55.976Z,96630.53
2023-03-29T23:28:26.027Z,96625.63
2023-03-29T23:30:57.899Z,96630.28
2023-03-29T23:33:25.693Z,96628.59
2023-03-29T23:35:53.366Z,96615.03
2023-03-29T23:38:20.440Z,96632.56
2023-03-29T23:41:00.356Z,96622.09
2023-03-29T23:43:31.779Z,96625.41
2023-03-29T23:46:17.582Z,96621.28
2023-03-29T23:48:46.159Z,96619.84
2023-03-29T23:51:12.966Z,96611.06
2023-03-29T23:53:39.502Z,96620.16
2023-03-29T23:56:06.259Z,96620.63
2023-03-29T23:58:35.938Z,96613.69
